createdAt,value
2017-10-01T00:00:17.227Z,18.33
2017-10-01T00:02:52.450Z,14.93
2017-10-01T00:05:26.962Z,23.33
2017-10-01T00:08:01.538Z,15.87
2017-10-01T00:10:36.177Z,17.57
2017-10-01T00:13:10.807Z,22.60
2017-10-01T00:15:45.991Z,15.20
2017-10-01T00:18:20.560Z,22.47
2017-10-01T00:20:55.114Z,18.57
2017-10-01T00:23:29.575Z,13.00
2017-10-01T00:26:04.130Z,18.63
2017-10-01T00:28:38.828Z,18.27
2017-10-01T00:31:13.335Z,16.83
2017-10-01T00:33:47.911Z,16.47
2017-10-01T00:36:22.426Z,14.83
2017-10-01T00:38:57.194Z,16.80
2017-10-01T00:41:31.891Z,18.30
2017-10-01T00:44:06.462Z,17.47
2017-10-01T00:46:41.098Z,14.60
2017-10-01T00:49:15.701Z,15.00
2017-10-01T00:51:49.643Z,15.17
2017-10-01T00:54:24.122Z,19.30
2017-10-01T00:56:58.008Z,22.70
2017-10-01T00:59:32.639Z,20.83
2017-10-01T01:02:07.227Z,15.50
2017-10-01T01:04:42.034Z,11.90
2017-10-01T01:07:17.744Z,19.30
2017-10-01T01:09:52.382Z,21.17
2017-10-01T01:12:26.959Z,17.83
2017-10-01T01:15:01.477Z,22.87
2017-10-01T01:17:36.275Z,27.03
2017-10-01T01:20:15.250Z,17.07
2017-10-01T01:22:49.474Z,20.37
2017-10-01T01:25:23.998Z,16.60
2017-10-01T01:27:59.081Z,23.70
2017-10-01T01:30:33.050Z,16.93
2017-10-01T01:33:07.188Z,33.93
2017-10-01T01:35:41.668Z,19.13
2017-10-01T01:38:15.607Z,17.73
2017-10-01T01:40:50.069Z,18.60
2017-10-01T01:43:24.245Z,24.63
2017-10-01T01:45:58.943Z,21.00
2017-10-01T01:48:33.354Z,19.50
2017-10-01T01:51:07.640Z,13.60
2017-10-01T01:53:42.254Z,21.60
2017-10-01T01:56:16.930Z,17.30
2017-10-01T01:58:51.419Z,19.00
2017-10-01T02:01:26.008Z,21.70
2017-10-01T02:04:00.901Z,13.63
2017-10-01T02:06:35.155Z,15.63
2017-10-01T02:09:09.295Z,14.20
2017-10-01T02:11:43.172Z,18.00
2017-10-01T02:14:17.789Z,18.83
2017-10-01T02:16:51.616Z,16.60
2017-10-01T02:19:26.163Z,18.53
2017-10-01T02:22:00.715Z,15.97
2017-10-01T02:24:35.179Z,21.63
2017-10-01T02:27:09.784Z,19.40
2017-10-01T02:29:43.854Z,22.00
2017-10-01T02:32:18.159Z,11.80
2017-10-01T02:34:52.114Z,20.67
2017-10-01T02:37:27.533Z,14.23
2017-10-01T02:40:01.270Z,22.87
2017-10-01T02:42:35.272Z,13.53
2017-10-01T02:45:17.262Z,15.10
2017-10-01T02:47:51.482Z,30.33
2017-10-01T02:50:25.569Z,21.03
2017-10-01T02:52:59.854Z,16.77
2017-10-01T02:55:34.078Z,20.20
2017-10-01T02:58:07.847Z,16.90
2017-10-01T03:00:42.446Z,13.73
2017-10-01T03:03:16.183Z,20.33
2017-10-01T03:05:49.998Z,15.10
2017-10-01T03:08:24.162Z,12.67
2017-10-01T03:10:58.906Z,11.93
2017-10-01T03:13:32.731Z,14.60
2017-10-01T03:16:06.570Z,16.87
2017-10-01T03:18:40.870Z,20.40
2017-10-01T03:21:15.099Z,15.67
2017-10-01T03:23:49.758Z,18.17
2017-10-01T03:26:24.594Z,14.23
2017-10-01T03:28:58.685Z,16.30
2017-10-01T03:31:32.985Z,16.50
2017-10-01T03:34:07.602Z,16.47
2017-10-01T03:36:41.763Z,15.03
2017-10-01T03:39:15.877Z,16.27
2017-10-01T03:41:49.883Z,22.40
2017-10-01T03:44:24.132Z,19.93
2017-10-01T03:46:57.950Z,16.10
2017-10-01T03:49:32.019Z,11.60
2017-10-01T03:52:06.622Z,20.93
2017-10-01T03:54:40.542Z,17.50
2017-10-01T03:57:14.293Z,17.03
2017-10-01T03:59:48.997Z,16.03
2017-10-01T04:02:23.487Z,21.57
2017-10-01T04:04:58.033Z,24.70
2017-10-01T04:07:32.578Z,29.23
2017-10-01T04:10:13.342Z,11.47
2017-10-01T04:12:47.889Z,15.03
2017-10-01T04:15:22.502Z,14.80
2017-10-01T04:17:57.150Z,12.90
2017-10-01T04:20:31.741Z,15.20
2017-10-01T04:23:06.305Z,13.13
2017-10-01T04:25:40.919Z,21.00
2017-10-01T04:28:15.606Z,18.93
2017-10-01T04:30:50.075Z,18.13
2017-10-01T04:33:24.758Z,17.50
2017-10-01T04:35:59.317Z,18.67
2017-10-01T04:38:33.787Z,13.83
2017-10-01T04:41:08.343Z,18.07
2017-10-01T04:43:42.863Z,17.43
2017-10-01T04:46:17.455Z,19.90
2017-10-01T04:48:51.906Z,39.83
2017-10-01T04:51:26.438Z,28.60
2017-10-01T04:54:01.066Z,19.20
2017-10-01T04:56:35.543Z,12.03
2017-10-01T04:59:10.010Z,18.23
2017-10-01T05:01:44.726Z,13.80
2017-10-01T05:04:19.218Z,16.67
2017-10-01T05:06:53.822Z,15.77
2017-10-01T05:09:28.294Z,13.33
2017-10-01T05:12:02.871Z,18.80
2017-10-01T05:14:37.341Z,13.20
2017-10-01T05:17:11.998Z,17.57
2017-10-01T05:19:46.458Z,14.80
2017-10-01T05:22:21.058Z,14.33
2017-10-01T05:24:55.623Z,10.30
2017-10-01T05:27:30.255Z,18.67
2017-10-01T05:30:16.586Z,11.53
2017-10-01T05:32:51.074Z,9.63
2017-10-01T05:35:25.618Z,13.77
2017-10-01T05:38:00.265Z,16.40
2017-10-01T05:40:34.814Z,12.57
2017-10-01T05:43:09.446Z,10.80
2017-10-01T05:45:44.083Z,11.13
2017-10-01T05:48:18.585Z,11.97
2017-10-01T05:50:53.269Z,14.40
2017-10-01T05:53:27.882Z,11.23
2017-10-01T05:56:02.322Z,9.90
2017-10-01T05:58:36.758Z,12.00
2017-10-01T06:01:11.583Z,12.60
2017-10-01T06:03:46.234Z,12.40
2017-10-01T06:06:20.788Z,17.13
2017-10-01T06:08:55.385Z,9.53
2017-10-01T06:11:30.006Z,10.97
2017-10-01T06:14:04.466Z,9.13
2017-10-01T06:16:39.062Z,10.97
2017-10-01T06:19:13.544Z,18.80
2017-10-01T06:21:48.098Z,13.03
2017-10-01T06:24:22.450Z,13.27
2017-10-01T06:26:56.813Z,12.83
2017-10-01T06:29:31.563Z,16.63
2017-10-01T06:32:06.146Z,9.47
2017-10-01T06:34:40.641Z,10.43
2017-10-01T06:37:15.202Z,15.83
2017-10-01T06:39:49.639Z,12.60
2017-10-01T06:42:24.231Z,14.13
2017-10-01T06:44:58.709Z,11.93
2017-10-01T06:47:33.213Z,17.33
2017-10-01T06:50:13.570Z,12.73
2017-10-01T06:52:47.851Z,10.77
2017-10-01T06:55:22.390Z,15.17
2017-10-01T06:57:56.830Z,12.17
2017-10-01T07:00:32.184Z,12.13
2017-10-01T07:03:06.686Z,11.60
2017-10-01T07:05:41.114Z,12.07
2017-10-01T07:08:15.729Z,16.50
2017-10-01T07:10:50.142Z,11.33
2017-10-01T07:13:24.805Z,9.53
2017-10-01T07:15:59.446Z,16.93
2017-10-01T07:18:34.095Z,13.13
2017-10-01T07:21:09.391Z,10.50
2017-10-01T07:23:43.839Z,13.67
2017-10-01T07:26:18.421Z,19.37
2017-10-01T07:28:52.907Z,12.93
2017-10-01T07:31:27.441Z,11.43
2017-10-01T07:34:01.885Z,22.17
2017-10-01T07:36:36.406Z,10.37
2017-10-01T07:39:11.330Z,15.40
2017-10-01T07:41:45.951Z,17.63
2017-10-01T07:44:20.487Z,13.13
2017-10-01T07:46:54.735Z,14.27
2017-10-01T07:49:29.469Z,7.97
2017-10-01T07:52:04.038Z,13.30
2017-10-01T07:54:38.743Z,15.30
2017-10-01T07:57:13.366Z,12.97
2017-10-01T07:59:48.046Z,9.90
2017-10-01T08:02:22.733Z,11.83
2017-10-01T08:04:57.514Z,12.80
2017-10-01T08:07:32.113Z,14.80
2017-10-01T08:10:13.057Z,9.10
2017-10-01T08:12:47.750Z,9.67
2017-10-01T08:15:22.325Z,8.60
2017-10-01T08:17:56.878Z,11.43
2017-10-01T08:20:31.427Z,9.17
2017-10-01T08:23:06.029Z,21.47
2017-10-01T08:25:40.586Z,15.60
2017-10-01T08:28:15.231Z,14.50
2017-10-01T08:30:49.867Z,7.73
2017-10-01T08:33:24.323Z,10.17
2017-10-01T08:35:58.917Z,9.30
2017-10-01T08:38:33.597Z,11.90
2017-10-01T08:41:08.154Z,16.17
2017-10-01T08:43:42.845Z,6.50
2017-10-01T08:46:17.410Z,10.30
2017-10-01T08:48:52.041Z,10.70
2017-10-01T08:51:26.570Z,9.83
2017-10-01T08:54:01.086Z,10.20
2017-10-01T08:56:35.731Z,16.97
2017-10-01T08:59:10.171Z,11.77
2017-10-01T09:01:44.630Z,8.43
2017-10-01T09:04:19.263Z,13.00
2017-10-01T09:06:53.936Z,17.53
2017-10-01T09:09:28.585Z,11.77
2017-10-01T09:12:03.220Z,9.87
2017-10-01T09:14:37.717Z,15.50
2017-10-01T09:17:12.251Z,7.80
2017-10-01T09:19:46.826Z,7.50
2017-10-01T09:22:21.509Z,15.20
2017-10-01T09:24:56.127Z,9.37
2017-10-01T09:27:30.733Z,9.57
2017-10-01T09:30:12.394Z,8.03
2017-10-01T09:32:47.053Z,13.33
2017-10-01T09:35:21.547Z,10.53
2017-10-01T09:37:56.110Z,8.70
2017-10-01T09:40:30.644Z,13.03
2017-10-01T09:43:05.287Z,7.60
2017-10-01T09:45:39.942Z,10.63
2017-10-01T09:48:14.600Z,8.70
2017-10-01T09:50:49.214Z,14.07
2017-10-01T09:53:23.794Z,15.43
2017-10-01T09:55:58.286Z,16.13
2017-10-01T09:58:32.862Z,20.20
2017-10-01T10:01:07.402Z,8.63
2017-10-01T10:03:41.898Z,9.80
2017-10-01T10:06:16.410Z,15.07
2017-10-01T10:08:50.923Z,13.10
2017-10-01T10:11:25.498Z,11.40
2017-10-01T10:14:00.163Z,11.43
2017-10-01T10:16:34.862Z,7.87
2017-10-01T10:19:09.439Z,14.20
2017-10-01T10:21:43.919Z,10.43
2017-10-01T10:24:18.387Z,13.27
2017-10-01T10:26:52.933Z,17.63
2017-10-01T10:29:27.465Z,7.60
2017-10-01T10:32:02.062Z,9.47
2017-10-01T10:34:36.718Z,14.97
2017-10-01T10:37:11.324Z,13.33
2017-10-01T10:39:45.829Z,21.10
2017-10-01T10:42:20.393Z,8.93
2017-10-01T10:44:54.874Z,10.43
2017-10-01T10:47:29.434Z,15.40
2017-10-01T10:50:07.742Z,8.20
2017-10-01T10:52:42.242Z,6.37
2017-10-01T10:55:17.569Z,11.80
2017-10-01T10:57:52.133Z,41.17
2017-10-01T11:00:26.570Z,23.87
2017-10-01T11:03:01.075Z,11.67
2017-10-01T11:05:35.653Z,19.30
2017-10-01T11:08:10.070Z,12.40
2017-10-01T11:10:44.666Z,6.80
2017-10-01T11:13:19.116Z,8.73
2017-10-01T11:15:53.755Z,18.23
2017-10-01T11:18:28.602Z,10.40
2017-10-01T11:21:03.154Z,10.23
2017-10-01T11:23:37.754Z,8.40
2017-10-01T11:26:12.337Z,11.33
2017-10-01T11:28:46.778Z,14.10
2017-10-01T11:31:21.290Z,8.83
2017-10-01T11:33:55.712Z,14.37
2017-10-01T11:36:30.254Z,8.60
2017-10-01T11:39:03.797Z,9.00
2017-10-01T11:41:38.445Z,6.27
2017-10-01T11:44:12.934Z,9.60
2017-10-01T11:46:47.519Z,8.43
2017-10-01T11:49:22.029Z,7.73
2017-10-01T11:51:56.493Z,8.57
2017-10-01T11:54:31.122Z,7.33
2017-10-01T11:57:05.813Z,6.33
2017-10-01T11:59:40.273Z,12.27
2017-10-01T12:02:15.502Z,8.80
2017-10-01T12:04:50.120Z,12.73
2017-10-01T12:07:24.615Z,11.70
2017-10-01T12:09:59.190Z,13.80
2017-10-01T12:12:33.822Z,13.53
2017-10-01T12:15:09.578Z,14.97
2017-10-01T12:17:44.079Z,20.03
2017-10-01T12:20:18.605Z,11.93
2017-10-01T12:22:53.203Z,10.00
2017-10-01T12:25:27.862Z,22.00
2017-10-01T12:28:02.546Z,6.63
2017-10-01T12:30:37.081Z,10.60
2017-10-01T12:33:11.603Z,4.93
2017-10-01T12:35:45.831Z,8.60
2017-10-01T12:38:20.438Z,9.10
2017-10-01T12:40:55.006Z,7.03
2017-10-01T12:43:29.627Z,11.87
2017-10-01T12:46:04.249Z,6.33
2017-10-01T12:48:38.681Z,11.03
2017-10-01T12:51:13.335Z,7.43
2017-10-01T12:53:47.847Z,12.87
2017-10-01T12:56:22.150Z,9.00
2017-10-01T12:58:56.795Z,10.20
2017-10-01T13:01:36.934Z,11.30
2017-10-01T13:04:11.185Z,9.33
2017-10-01T13:06:45.570Z,10.50
2017-10-01T13:09:20.024Z,17.20
2017-10-01T13:11:54.517Z,13.80
2017-10-01T13:14:29.126Z,11.80
2017-10-01T13:17:03.754Z,11.47
2017-10-01T13:19:38.487Z,8.77
2017-10-01T13:22:13.002Z,10.10
2017-10-01T13:24:47.466Z,7.93
2017-10-01T13:27:22.070Z,11.03
2017-10-01T13:29:56.531Z,12.10
2017-10-01T13:32:31.610Z,8.80
2017-10-01T13:35:06.565Z,10.90
2017-10-01T13:37:41.195Z,13.93
2017-10-01T13:40:15.934Z,9.40
2017-10-01T13:42:50.458Z,10.43
2017-10-01T13:45:25.030Z,7.87
2017-10-01T13:47:59.741Z,12.23
2017-10-01T13:50:34.325Z,9.43
2017-10-01T13:53:08.878Z,16.23
2017-10-01T13:55:43.633Z,8.37
2017-10-01T13:58:18.393Z,14.73
2017-10-01T14:00:52.701Z,11.73
2017-10-01T14:03:27.385Z,9.07
2017-10-01T14:06:01.772Z,9.80
2017-10-01T14:08:36.309Z,7.93
2017-10-01T14:11:10.951Z,9.83
2017-10-01T14:13:45.486Z,11.63
2017-10-01T14:16:20.030Z,6.73
2017-10-01T14:18:54.486Z,11.73
2017-10-01T14:21:29.062Z,24.43
2017-10-01T14:24:03.722Z,7.93
2017-10-01T14:26:38.249Z,15.33
2017-10-01T14:29:12.785Z,7.57
2017-10-01T14:31:47.413Z,9.80
2017-10-01T14:34:22.190Z,6.80
2017-10-01T14:36:56.690Z,15.77
2017-10-01T14:39:31.197Z,20.03
2017-10-01T14:42:05.778Z,11.90
2017-10-01T14:44:40.422Z,10.30
2017-10-01T14:47:15.074Z,7.73
2017-10-01T14:49:49.582Z,7.97
2017-10-01T14:52:24.214Z,26.03
2017-10-01T14:54:58.760Z,16.63
2017-10-01T14:57:33.337Z,7.77
2017-10-01T15:00:12.430Z,11.13
2017-10-01T15:02:47.018Z,6.60
2017-10-01T15:05:21.630Z,11.70
2017-10-01T15:07:56.866Z,7.07
2017-10-01T15:10:31.427Z,10.00
2017-10-01T15:13:05.998Z,14.70
2017-10-01T15:15:40.459Z,10.67
2017-10-01T15:18:15.205Z,13.77
2017-10-01T15:20:49.862Z,10.47
2017-10-01T15:23:24.278Z,8.67
2017-10-01T15:25:58.961Z,16.20
2017-10-01T15:28:33.606Z,8.40
2017-10-01T15:31:08.207Z,17.60
2017-10-01T15:33:43.125Z,9.73
2017-10-01T15:36:17.681Z,12.70
2017-10-01T15:38:52.995Z,10.40
2017-10-01T15:41:27.656Z,16.30
2017-10-01T15:44:02.251Z,12.17
2017-10-01T15:46:36.849Z,6.80
2017-10-01T15:49:11.409Z,13.73
2017-10-01T15:51:45.994Z,8.20
2017-10-01T15:54:20.543Z,25.03
2017-10-01T15:56:54.964Z,8.37
2017-10-01T15:59:29.575Z,10.30
2017-10-01T16:02:04.147Z,8.73
2017-10-01T16:04:38.746Z,15.83
2017-10-01T16:07:13.298Z,17.70
2017-10-01T16:09:48.013Z,12.03
2017-10-01T16:12:22.517Z,10.93
2017-10-01T16:14:57.025Z,12.23
2017-10-01T16:17:31.667Z,14.70
2017-10-01T16:20:11.407Z,23.13
2017-10-01T16:22:45.978Z,11.97
2017-10-01T16:25:20.479Z,14.27
2017-10-01T16:27:55.713Z,19.60
2017-10-01T16:30:31.129Z,11.63
2017-10-01T16:33:05.651Z,10.17
2017-10-01T16:35:40.209Z,21.70
2017-10-01T16:38:14.703Z,14.33
2017-10-01T16:40:49.242Z,16.23
2017-10-01T16:43:23.836Z,13.33
2017-10-01T16:45:58.451Z,15.83
2017-10-01T16:48:32.894Z,14.03
2017-10-01T16:51:07.551Z,15.43
2017-10-01T16:53:42.019Z,11.20
2017-10-01T16:56:16.615Z,10.00
2017-10-01T16:58:51.202Z,22.53
2017-10-01T17:01:26.049Z,17.13
2017-10-01T17:04:00.846Z,14.53
2017-10-01T17:06:35.403Z,14.23
2017-10-01T17:09:09.970Z,21.80
2017-10-01T17:11:44.622Z,14.40
2017-10-01T17:14:19.248Z,11.30
2017-10-01T17:16:53.763Z,12.93
2017-10-01T17:19:28.442Z,17.43
2017-10-01T17:22:03.043Z,12.93
2017-10-01T17:24:37.474Z,20.47
2017-10-01T17:27:12.050Z,12.87
2017-10-01T17:29:46.655Z,12.57
2017-10-01T17:32:21.229Z,13.63
2017-10-01T17:34:55.762Z,19.63
2017-10-01T17:37:30.370Z,22.50
2017-10-01T17:40:15.747Z,18.97
2017-10-01T17:42:50.365Z,16.50
2017-10-01T17:45:24.917Z,31.83
2017-10-01T17:47:59.649Z,24.10
2017-10-01T17:50:34.303Z,22.93
2017-10-01T17:53:08.810Z,16.37
2017-10-01T17:55:43.442Z,20.53
2017-10-01T17:58:18.767Z,14.47
2017-10-01T18:00:53.422Z,16.53
2017-10-01T18:03:27.967Z,16.87
2017-10-01T18:06:02.507Z,16.67
2017-10-01T18:08:37.131Z,16.73
2017-10-01T18:11:11.702Z,26.87
2017-10-01T18:13:48.081Z,23.63
2017-10-01T18:16:22.611Z,26.97
2017-10-01T18:18:57.142Z,30.77
2017-10-01T18:21:31.712Z,24.93
2017-10-01T18:24:06.178Z,15.27
2017-10-01T18:26:40.822Z,19.90
2017-10-01T18:29:15.280Z,17.53
2017-10-01T18:31:50.646Z,24.30
2017-10-01T18:34:25.162Z,26.87
2017-10-01T18:36:59.675Z,23.23
2017-10-01T18:39:35.033Z,25.37
2017-10-01T18:42:09.481Z,36.43
2017-10-01T18:44:43.972Z,25.90
2017-10-01T18:47:19.305Z,26.00
2017-10-01T18:49:53.900Z,24.90
2017-10-01T18:52:28.483Z,21.70
2017-10-01T18:57:44.799Z,19.53
2017-10-01T19:00:19.419Z,24.70
2017-10-01T19:02:53.938Z,16.97
2017-10-01T19:05:28.591Z,21.43
2017-10-01T19:08:02.766Z,14.20
2017-10-01T19:10:37.411Z,19.00
2017-10-01T19:13:12.126Z,16.17
2017-10-01T19:15:46.762Z,17.47
2017-10-01T19:18:21.455Z,16.83
2017-10-01T19:20:56.737Z,14.30
2017-10-01T19:23:31.258Z,22.03
2017-10-01T19:26:05.974Z,17.27
2017-10-01T19:28:40.618Z,16.00
2017-10-01T19:31:15.181Z,19.43
2017-10-01T19:33:49.870Z,31.90
2017-10-01T19:36:24.582Z,13.60
2017-10-01T19:38:59.094Z,21.40
2017-10-01T19:41:33.719Z,13.87
2017-10-01T19:44:08.290Z,20.13
2017-10-01T19:46:42.825Z,19.70
2017-10-01T19:49:17.333Z,15.60
2017-10-01T19:51:51.957Z,23.07
2017-10-01T19:54:27.381Z,15.47
2017-10-01T19:57:01.910Z,17.70
2017-10-01T19:59:36.449Z,19.40
2017-10-01T20:02:10.958Z,17.00
2017-10-01T20:04:45.215Z,19.20
2017-10-01T20:07:20.303Z,15.50
2017-10-01T20:09:55.111Z,17.30
2017-10-01T20:12:29.746Z,20.40
2017-10-01T20:15:14.975Z,27.03
2017-10-01T20:17:49.678Z,34.67
2017-10-01T20:20:24.252Z,25.90
2017-10-01T20:22:58.906Z,41.70
2017-10-01T20:25:33.537Z,41.80
2017-10-01T20:28:08.062Z,29.90
2017-10-01T20:30:42.585Z,27.20
2017-10-01T20:33:17.235Z,25.33
2017-10-01T20:35:51.777Z,25.30
2017-10-01T20:38:27.187Z,26.63
2017-10-01T20:41:01.666Z,27.57
2017-10-01T20:43:36.265Z,20.00
2017-10-01T20:46:11.577Z,26.93
2017-10-01T20:48:46.138Z,19.50
2017-10-01T20:51:20.750Z,21.03
2017-10-01T20:53:55.270Z,22.40
2017-10-01T20:56:29.902Z,18.83
2017-10-01T20:59:04.610Z,18.80
2017-10-01T21:01:39.176Z,20.47
2017-10-01T21:04:13.645Z,20.07
2017-10-01T21:06:48.246Z,20.83
2017-10-01T21:09:22.781Z,25.53
2017-10-01T21:11:56.738Z,30.30
2017-10-01T21:14:31.404Z,22.07
2017-10-01T21:17:05.943Z,30.07
2017-10-01T21:19:40.433Z,27.20
2017-10-01T21:22:15.018Z,29.40
2017-10-01T21:24:49.642Z,29.00
2017-10-01T21:27:24.297Z,27.60
2017-10-01T21:29:58.814Z,27.13
2017-10-01T21:32:33.425Z,22.40
2017-10-01T21:35:14.863Z,18.73
2017-10-01T21:37:49.419Z,26.43
2017-10-01T21:40:23.965Z,25.73
2017-10-01T21:42:58.558Z,24.30
2017-10-01T21:45:33.104Z,25.83
2017-10-01T21:48:07.738Z,22.73
2017-10-01T21:50:42.322Z,22.70
2017-10-01T21:53:16.775Z,18.50
2017-10-01T21:55:51.506Z,23.00
2017-10-01T21:58:26.942Z,21.10
2017-10-01T22:01:01.074Z,18.40
2017-10-01T22:03:36.601Z,19.70
2017-10-01T22:06:12.037Z,18.23
2017-10-01T22:08:46.562Z,17.80
2017-10-01T22:11:21.128Z,19.77
2017-10-01T22:13:55.716Z,25.70
2017-10-01T22:16:30.360Z,22.37
2017-10-01T22:19:04.924Z,19.30
2017-10-01T22:21:39.466Z,17.53
2017-10-01T22:24:13.935Z,16.77
2017-10-01T22:26:48.450Z,18.17
2017-10-01T22:29:23.090Z,23.03
2017-10-01T22:31:57.631Z,26.43
2017-10-01T22:34:32.206Z,19.50
2017-10-01T22:37:06.838Z,21.93
2017-10-01T22:39:41.367Z,21.30
2017-10-01T22:42:15.943Z,15.67
2017-10-01T22:44:50.409Z,19.43
2017-10-01T22:47:24.970Z,20.70
2017-10-01T22:49:59.583Z,22.43
2017-10-01T22:52:34.114Z,19.63
2017-10-01T22:55:15.430Z,24.93
2017-10-01T22:57:49.983Z,20.50
2017-10-01T23:00:24.706Z,23.10
2017-10-01T23:02:59.214Z,23.27
2017-10-01T23:05:33.799Z,20.00
2017-10-01T23:08:08.330Z,23.27
2017-10-01T23:10:43.068Z,22.50
2017-10-01T23:13:17.722Z,29.13
2017-10-01T23:15:52.285Z,28.93
2017-10-01T23:18:27.132Z,26.00
2017-10-01T23:21:01.863Z,30.70
2017-10-01T23:23:37.264Z,28.67
2017-10-01T23:26:11.727Z,21.87
2017-10-01T23:28:46.241Z,23.20
2017-10-01T23:31:20.886Z,28.63
2017-10-01T23:33:55.470Z,24.90
2017-10-01T23:36:30.081Z,21.10
2017-10-01T23:39:03.920Z,26.53
2017-10-01T23:41:38.557Z,24.03
2017-10-01T23:44:13.240Z,22.67
2017-10-01T23:46:47.874Z,23.70
2017-10-01T23:49:22.382Z,24.83
2017-10-01T23:51:57.077Z,20.33
2017-10-01T23:54:31.775Z,26.80
2017-10-01T23:57:06.506Z,26.53
2017-10-01T23:59:40.996Z,24.93
